Amber, Washington
Current Conditions -  °F | °C
As of 5:58 AM on Tuesday 27 Jan 2015 (Local Time) from KSKA Reporting Station
Haze Haze  
Wind Chill: 21°   Ceiling: Unl
Heat Index: 28°   Visibility: 1mi
Dew Point: 28°   Wind: 6mph
Humidity: 100%   Direction: 50°NE
Pressure: 29.96"   Gusts: NA
Location:  47.411°N, 117.628°W
Report Text: KSKA 271358Z 05005KT 1SM R05/4500FT BR CLR M02/M02 A2996 RMK AO2A TWR VIS 1/2 VIS 1/4 RWY23 SLP168 P0000 T10241024
Loading
Personal Weather Stations






























Interactive Weather Map New forecast layout! Learn more

10-Day Weather Forecast

Advertisements
Track Severe Weather on mobile